Time;durP1;ratioP1;P1;durP2;ratioP2;P2;SDS_P1;SDS_P2;PMS_P1;PMS_P2;Temp;Humidity;BMP_temperature;BMP_pressure;BME280_temperature;BME280_humidity;BME280_pressure;Samples;Min_cycle;Max_cycle;Signal;HPM_P1;HPM_P2
2021/12/11 00:01:20;;;;;;;11.90;2.30;;;;;;;6.66;75.60;97547.59;6241828;23;20079;-96
2021/12/11 00:03:57;;;;;;;12.30;2.42;;;;;;;7.12;74.27;97543.53;6212494;23;20004;-96
2021/12/11 00:06:30;;;;;;;8.13;2.20;;;;;;;7.36;73.27;97557.00;6239359;23;20007;-96
2021/12/11 00:09:02;;;;;;;9.45;2.20;;;;;;;6.32;75.98;97544.59;6241134;23;20004;-96
2021/12/11 00:11:34;;;;;;;11.35;2.80;;;;;;;6.29;77.25;97561.03;6215355;23;20008;-96
2021/12/11 00:14:03;;;;;;;9.50;1.70;;;;;;;6.09;76.69;97539.66;6241385;23;20088;-96
2021/12/11 00:16:33;;;;;;;12.73;2.20;;;;;;;6.11;77.54;97566.38;6241331;23;20036;-95
2021/12/11 00:19:07;;;;;;;7.40;1.52;;;;;;;6.19;76.94;97571.47;6239708;23;20015;-95
2021/12/11 00:21:32;;;;;;;9.10;1.90;;;;;;;6.51;75.51;97580.63;6215669;23;20008;-96
2021/12/11 00:24:03;;;;;;;7.97;1.80;;;;;;;6.21;76.06;97578.38;6215543;23;20036;-95
2021/12/11 00:26:37;;;;;;;7.50;1.67;;;;;;;6.57;74.92;97565.00;6241421;23;20038;-96
2021/12/11 00:29:05;;;;;;;11.45;1.60;;;;;;;7.50;71.81;97562.84;6215279;23;20063;-96
2021/12/11 00:31:32;;;;;;;7.53;2.05;;;;;;;5.90;74.78;97562.25;6242855;23;20661;-96
2021/12/11 00:33:58;;;;;;;9.80;2.22;;;;;;;5.79;76.36;97577.88;6214845;23;20038;-95
2021/12/11 00:36:32;;;;;;;11.32;1.70;;;;;;;6.21;77.25;97601.66;6214656;23;20163;-96
2021/12/11 00:39:11;;;;;;;8.93;1.80;;;;;;;6.38;76.16;97582.50;6241903;23;20004;-96
2021/12/11 00:41:38;;;;;;;8.38;1.70;;;;;;;6.24;75.45;97609.41;6242485;23;20573;-95
2021/12/11 00:44:05;;;;;;;9.27;1.67;;;;;;;6.54;76.14;97593.53;6216513;23;20000;-95
2021/12/11 00:46:33;;;;;;;10.55;2.05;;;;;;;6.26;76.01;97599.91;6243258;23;20007;-96
2021/12/11 00:49:14;;;;;;;8.23;1.73;;;;;;;5.96;77.66;97598.44;6243430;23;20007;-96
2021/12/11 00:51:40;;;;;;;11.55;1.98;;;;;;;6.18;77.48;97591.34;6215562;23;20149;-95
2021/12/11 00:54:07;;;;;;;9.27;1.85;;;;;;;6.26;77.29;97580.91;6214404;23;20140;-96
2021/12/11 00:56:37;;;;;;;13.60;2.38;;;;;;;6.36;76.19;97589.41;6241692;23;20007;-96
2021/12/11 00:59:08;;;;;;;12.52;2.63;;;;;;;6.49;76.58;97585.81;6237736;23;20172;-95
2021/12/11 01:01:45;;;;;;;9.65;2.55;;;;;;;6.37;76.10;97592.00;6209032;23;20090;-96
2021/12/11 01:04:16;;;;;;;11.73;2.40;;;;;;;6.53;75.69;97589.22;6234629;23;20087;-96
2021/12/11 01:06:45;;;;;;;8.90;2.65;;;;;;;6.43;75.70;97611.78;6208931;23;20047;-96
2021/12/11 01:09:17;;;;;;;8.32;2.13;;;;;;;6.66;75.22;97602.00;6236306;23;20427;-95
2021/12/11 01:11:48;;;;;;;8.32;2.20;;;;;;;6.38;75.50;97611.00;6235059;23;20095;-96
2021/12/11 01:14:32;;;;;;;8.48;2.42;;;;;;;5.99;77.91;97616.53;6208596;23;20012;-96
2021/12/11 01:17:01;;;;;;;13.88;2.33;;;;;;;5.56;79.15;97634.97;6236664;23;20087;-94
2021/12/11 01:19:36;;;;;;;10.60;2.65;;;;;;;5.34;80.29;97635.09;6207990;23;20040;-96
2021/12/11 01:22:11;;;;;;;8.77;2.58;;;;;;;5.45;80.16;97642.78;6235771;23;20454;-95
2021/12/11 01:24:45;;;;;;;11.23;2.50;;;;;;;5.29;80.99;97644.63;6235316;23;20053;-96
2021/12/11 01:27:19;;;;;;;9.70;2.22;;;;;;;6.03;80.35;97640.69;6236078;23;20015;-95
2021/12/11 01:29:46;;;;;;;14.57;3.38;;;;;;;5.71;79.92;97640.03;6234832;23;20012;-95
2021/12/11 01:32:13;;;;;;;14.73;2.70;;;;;;;5.95;79.84;97651.06;6236494;23;20028;-95
2021/12/11 01:34:44;;;;;;;11.52;2.60;;;;;;;5.89;79.75;97648.53;6234007;23;20019;-95
2021/12/11 01:37:10;;;;;;;15.75;3.38;;;;;;;5.98;78.95;97672.63;6234845;23;20062;-96
2021/12/11 01:39:38;;;;;;;13.13;3.15;;;;;;;5.89;79.17;97654.56;6233725;23;20032;-95
2021/12/11 01:42:11;;;;;;;16.13;2.70;;;;;;;6.02;79.97;97657.06;6208341;23;20016;-96
2021/12/11 01:44:39;;;;;;;10.85;2.88;;;;;;;6.28;78.83;97667.19;6207832;23;20008;-95
2021/12/11 01:47:24;;;;;;;13.02;3.00;;;;;;;6.36;78.30;97670.56;6235815;23;20042;-96
2021/12/11 01:49:53;;;;;;;17.73;3.05;;;;;;;6.44;77.52;97644.56;6205979;23;20617;-95
2021/12/11 01:52:33;;;;;;;12.98;3.00;;;;;;;6.32;77.01;97656.78;6236486;23;19999;-96
2021/12/11 01:55:00;;;;;;;12.65;3.60;;;;;;;6.03;77.81;97649.28;6207600;23;20008;-96
2021/12/11 01:57:29;;;;;;;12.63;2.78;;;;;;;6.39;77.49;97660.19;6232825;23;20050;-96
2021/12/11 02:00:07;;;;;;;12.27;3.08;;;;;;;6.48;77.45;97688.56;6235275;23;20033;-96
2021/12/11 02:02:37;;;;;;;12.15;2.53;;;;;;;6.45;77.83;97695.50;6209661;23;20022;-96
2021/12/11 02:05:04;;;;;;;10.57;2.80;;;;;;;6.19;77.42;97681.06;6207814;23;20472;-96
2021/12/11 02:07:37;;;;;;;9.63;2.60;;;;;;;6.24;78.12;97691.41;6209464;23;20088;-96
2021/12/11 02:10:10;;;;;;;6.95;2.15;;;;;;;6.37;78.35;97712.84;6208120;23;20023;-94
2021/12/11 02:12:39;;;;;;;14.93;3.30;;;;;;;6.34;78.17;97707.72;6236093;23;20398;-95
2021/12/11 02:15:10;;;;;;;13.80;2.88;;;;;;;6.80;77.52;97707.25;6235606;23;20015;-95
2021/12/11 02:17:44;;;;;;;13.13;4.38;;;;;;;6.62;77.95;97716.06;6208999;23;20008;-95
2021/12/11 02:20:14;;;;;;;10.95;2.45;;;;;;;6.32;77.96;97702.53;6204340;23;20635;-95
2021/12/11 02:22:49;;;;;;;10.60;2.38;;;;;;;6.56;77.67;97723.91;6207452;23;20428;-95
2021/12/11 02:25:23;;;;;;;10.77;3.45;;;;;;;6.27;78.01;97730.19;6208845;23;20020;-95
2021/12/11 02:27:53;;;;;;;8.45;2.30;;;;;;;6.15;77.94;97708.72;6206149;23;20812;-96
2021/12/11 02:30:34;;;;;;;6.72;1.90;;;;;;;6.45;79.04;97711.91;6234267;23;20447;-95
2021/12/11 02:33:23;;;;;;;12.02;2.85;;;;;;;6.79;78.14;97706.38;6235792;23;20008;-95
2021/12/11 02:36:07;;;;;;;7.30;2.53;;;;;;;6.33;78.07;97709.41;6233022;23;20011;-95
2021/12/11 02:38:47;;;;;;;;;;;;;;;6.59;78.41;97711.75;6208581;23;20445;-95
2021/12/11 02:41:22;;;;;;;10.15;2.40;;;;;;;6.60;78.72;97710.06;6233844;23;20276;-94
2021/12/11 02:44:02;;;;;;;17.02;3.42;;;;;;;6.70;78.91;97705.63;6233754;23;20077;-96
2021/12/11 02:46:33;;;;;;;15.38;3.08;;;;;;;6.44;79.62;97704.16;6208201;23;20012;-95
2021/12/11 02:49:10;;;;;;;9.70;2.45;;;;;;;6.29;79.85;97718.09;6235554;23;20346;-95
2021/12/11 02:52:29;;;;;;;10.77;2.90;;;;;;;6.21;80.18;97738.00;6235379;23;19999;-95
2021/12/11 02:55:04;;;;;;;10.00;2.15;;;;;;;6.15;80.67;97728.56;6174265;23;20066;-95
2021/12/11 02:57:38;;;;;;;9.90;2.25;;;;;;;6.34;79.98;97713.72;6233841;23;20012;-96
2021/12/11 03:00:15;;;;;;;11.52;2.28;;;;;;;5.99;79.86;97709.72;6203699;23;20026;-96
2021/12/11 03:02:47;;;;;;;14.70;2.80;;;;;;;6.15;80.15;97700.97;6204679;23;20436;-95
2021/12/11 03:05:17;;;;;;;10.20;2.53;;;;;;;5.94;80.45;97706.25;6206054;23;20276;-96
2021/12/11 03:07:50;;;;;;;11.15;2.45;;;;;;;6.09;80.43;97733.78;6234784;23;20005;-95
2021/12/11 03:10:18;;;;;;;9.30;2.22;;;;;;;6.37;79.48;97724.06;6207188;23;20150;-95
2021/12/11 03:12:44;;;;;;;11.50;2.10;;;;;;;6.10;80.27;97722.56;6234410;23;20000;-95
2021/12/11 03:15:12;;;;;;;11.35;2.20;;;;;;;5.94;80.93;97732.13;6208505;23;20509;-95
2021/12/11 03:17:38;;;;;;;11.10;2.33;;;;;;;6.35;79.98;97737.88;6235280;23;20427;-96
2021/12/11 03:20:07;;;;;;;13.13;2.80;;;;;;;6.25;80.41;97729.34;6235503;23;20411;-96
2021/12/11 03:22:34;;;;;;;19.38;2.63;;;;;;;6.10;80.71;97730.34;6234093;23;20082;-96
2021/12/11 03:25:02;;;;;;;11.93;2.60;;;;;;;6.07;80.80;97741.56;6235680;23;20000;-95
2021/12/11 03:27:28;;;;;;;11.90;2.17;;;;;;;5.78;81.62;97719.31;6233518;23;20008;-96
2021/12/11 03:29:54;;;;;;;12.05;2.85;;;;;;;6.00;80.71;97719.19;6234275;23;20010;-96
2021/12/11 03:32:20;;;;;;;15.68;3.10;;;;;;;6.00;80.72;97746.78;6207748;23;20099;-95
2021/12/11 03:34:49;;;;;;;10.85;2.63;;;;;;;6.25;80.24;97747.47;6234904;23;20012;-95
2021/12/11 03:37:18;;;;;;;9.13;2.60;;;;;;;6.33;79.32;97753.44;6232899;23;20381;-95
2021/12/11 03:39:47;;;;;;;13.38;3.03;;;;;;;5.96;79.34;97753.69;6234065;23;20007;-96
2021/12/11 03:42:17;;;;;;;13.25;2.20;;;;;;;6.52;78.54;97743.78;6233663;23;20011;-96
2021/12/11 03:44:44;;;;;;;10.40;2.38;;;;;;;6.47;77.90;97774.91;6207082;23;20087;-96
2021/12/11 03:47:14;;;;;;;11.38;2.90;;;;;;;6.07;78.87;97736.41;6208051;23;20012;-96
2021/12/11 03:49:40;;;;;;;12.65;2.83;;;;;;;6.28;78.71;97745.72;6234277;23;20008;-96
2021/12/11 03:52:08;;;;;;;13.73;2.35;;;;;;;6.44;79.42;97743.88;6206397;23;20008;-96
2021/12/11 03:54:38;;;;;;;11.52;2.28;;;;;;;6.34;78.87;97751.72;6206784;23;20015;-96
2021/12/11 03:57:06;;;;;;;14.68;2.40;;;;;;;6.51;78.24;97734.28;6205991;23;20023;-95
2021/12/11 03:59:31;;;;;;;11.27;2.10;;;;;;;6.45;78.07;97740.38;6231824;23;20054;-96
2021/12/11 04:02:02;;;;;;;11.32;2.47;;;;;;;6.62;76.85;97723.84;6203223;23;20008;-95
2021/12/11 04:04:36;;;;;;;7.93;1.92;;;;;;;7.06;75.84;97751.03;6233406;23;20087;-94
2021/12/11 04:07:06;;;;;;;7.32;1.38;;;;;;;6.78;75.55;97746.13;6206345;23;20004;-95
2021/12/11 04:09:32;;;;;;;11.70;2.03;;;;;;;6.67;75.78;97753.16;6207529;23;20393;-96
2021/12/11 04:12:04;;;;;;;12.40;2.13;;;;;;;5.96;78.87;97757.13;6234522;23;20008;-96
2021/12/11 04:14:33;;;;;;;8.05;2.00;;;;;;;6.22;79.50;97760.44;6234368;23;20000;-95
2021/12/11 04:17:00;;;;;;;12.13;2.47;;;;;;;5.91;80.97;97755.44;6234125;23;20004;-96
2021/12/11 04:19:26;;;;;;;10.90;2.00;;;;;;;5.90;80.99;97756.31;6203650;23;20019;-95
2021/12/11 04:21:53;;;;;;;6.72;1.85;;;;;;;6.12;81.17;97760.53;6234104;23;20008;-94
2021/12/11 04:24:24;;;;;;;11.15;2.92;;;;;;;6.14;80.65;97758.78;6206845;23;20000;-95
2021/12/11 04:26:50;;;;;;;10.18;2.70;;;;;;;6.39;81.17;97768.06;6233241;23;20426;-95
2021/12/11 04:29:17;;;;;;;12.77;2.50;;;;;;;6.23;81.25;97756.97;6233986;23;20434;-95
2021/12/11 04:31:46;;;;;;;10.40;2.15;;;;;;;6.31;80.46;97769.00;6235293;23;20016;-96
2021/12/11 04:34:14;;;;;;;12.82;2.22;;;;;;;6.17;80.40;97777.75;6207950;23;20011;-95
2021/12/11 04:36:44;;;;;;;11.88;2.15;;;;;;;6.27;80.40;97787.16;6235402;23;20008;-96
2021/12/11 04:39:13;;;;;;;10.98;2.50;;;;;;;6.01;81.81;97783.00;6235084;23;20016;-95
2021/12/11 04:41:49;;;;;;;12.30;2.00;;;;;;;6.20;80.86;97767.38;6234989;23;20004;-96
2021/12/11 04:44:24;;;;;;;9.82;2.20;;;;;;;6.19;80.38;97783.75;6235993;23;20030;-95
2021/12/11 04:46:51;;;;;;;15.15;2.47;;;;;;;6.27;80.93;97792.34;6235780;23;20546;-96
2021/12/11 04:49:28;;;;;;;14.27;2.47;;;;;;;6.31;80.38;97789.72;6210003;23;20027;-95
2021/12/11 04:52:09;;;;;;;11.80;2.70;;;;;;;5.90;81.14;97783.06;6236601;23;20402;-95
2021/12/11 04:57:46;;;;;;;16.10;3.20;;;;;;;5.98;81.04;97786.50;6235626;23;20127;-96
2021/12/11 05:11:02;;;;;;;12.20;2.38;;;;;;;6.24;81.12;97800.13;6110794;23;20064;-96
2021/12/11 05:13:32;;;;;;;15.75;2.63;;;;;;;5.48;82.76;97810.84;6113297;23;20690;-96
2021/12/11 05:16:01;;;;;;;15.60;2.58;;;;;;;6.01;83.56;97823.56;6113370;23;20014;-96
2021/12/11 05:18:29;;;;;;;11.73;2.80;;;;;;;5.91;83.13;97827.91;6087835;23;20014;-95
2021/12/11 05:21:00;;;;;;;17.50;2.65;;;;;;;5.59;83.33;97827.19;6113114;23;20139;-94
2021/12/11 05:23:27;;;;;;;14.57;2.60;;;;;;;5.90;82.39;97831.34;6112332;23;20021;-95
2021/12/11 05:25:54;;;;;;;16.80;2.70;;;;;;;5.70;82.89;97823.72;6113377;23;20031;-95
2021/12/11 05:28:21;;;;;;;14.07;3.33;;;;;;;5.72;82.13;97820.25;6088598;23;20158;-95
2021/12/11 05:30:50;;;;;;;20.08;3.38;;;;;;;6.48;80.38;97823.25;6114300;23;20045;-96
2021/12/11 05:33:17;;;;;;;12.75;3.53;;;;;;;5.78;79.80;97809.00;6088439;23;20005;-95
2021/12/11 05:35:44;;;;;;;12.77;2.92;;;;;;;5.92;79.24;97829.63;6086316;23;20014;-96
2021/12/11 05:38:13;;;;;;;11.88;2.63;;;;;;;6.06;80.94;97832.19;6085031;23;20013;-96
2021/12/11 05:40:42;;;;;;;14.35;2.88;;;;;;;6.00;80.85;97808.91;6200968;23;20535;-96
2021/12/11 05:43:10;;;;;;;12.50;2.85;;;;;;;6.49;79.15;97834.47;6205286;23;20019;-96
2021/12/11 05:45:37;;;;;;;12.85;2.85;;;;;;;7.79;74.04;97812.41;6232670;23;20004;-96
2021/12/11 05:48:04;;;;;;;17.48;2.97;;;;;;;6.75;75.20;97823.91;6204800;23;20008;-96
2021/12/11 05:50:36;;;;;;;16.08;3.83;;;;;;;6.86;76.68;97822.94;6204831;23;20095;-95
2021/12/11 05:53:03;;;;;;;13.48;2.75;;;;;;;6.54;77.41;97829.25;6233349;23;20008;-95
2021/12/11 05:55:32;;;;;;;14.73;3.08;;;;;;;6.44;77.55;97821.56;6205359;23;20007;-95
2021/12/11 05:58:02;;;;;;;16.80;3.30;;;;;;;7.75;73.66;97816.78;6204637;23;20023;-96
2021/12/11 06:00:33;;;;;;;13.90;2.70;;;;;;;6.21;76.34;97837.25;6205037;23;20462;-95
2021/12/11 06:03:03;;;;;;;19.83;3.50;;;;;;;6.44;77.98;97834.53;6208865;23;20004;-95
2021/12/11 06:05:32;;;;;;;12.75;3.13;;;;;;;6.45;79.10;97833.63;6232138;23;20342;-95
2021/12/11 06:07:57;;;;;;;15.93;3.47;;;;;;;6.46;79.77;97852.63;6231660;23;20086;-94
2021/12/11 06:10:24;;;;;;;18.30;3.63;;;;;;;6.33;80.13;97838.88;6232681;23;20099;-95
2021/12/11 06:12:54;;;;;;;12.90;2.80;;;;;;;6.21;80.94;97852.78;6231847;23;20517;-95
2021/12/11 06:15:20;;;;;;;13.20;3.50;;;;;;;6.49;80.13;97827.56;6205137;23;20755;-95
2021/12/11 06:17:46;;;;;;;16.45;3.65;;;;;;;7.01;79.49;97835.75;6232151;23;20003;-95
2021/12/11 06:20:18;;;;;;;21.67;3.85;;;;;;;6.79;79.24;97841.16;6205073;23;20012;-95
2021/12/11 06:22:44;;;;;;;20.88;4.90;;;;;;;7.18;78.24;97843.34;6234281;23;20016;-96
2021/12/11 06:25:17;;;;;;;18.50;4.93;;;;;;;6.64;78.69;97842.13;6234778;23;20059;-95
2021/12/11 06:27:43;;;;;;;18.77;5.03;;;;;;;6.65;79.43;97832.59;6204858;23;20059;-95
2021/12/11 06:30:10;;;;;;;22.25;4.88;;;;;;;6.37;80.69;97827.66;6205988;23;20016;-94
2021/12/11 06:32:36;;;;;;;28.90;6.05;;;;;;;6.29;81.37;97845.84;6208887;23;20642;-95
2021/12/11 06:35:10;;;;;;;83.07;10.73;;;;;;;6.10;81.67;97844.25;6233648;23;20004;-95
2021/12/11 06:37:35;;;;;;;27.33;8.93;;;;;;;5.96;83.55;97839.09;6234137;23;20028;-94
2021/12/11 06:40:01;;;;;;;40.22;10.50;;;;;;;5.48;84.67;97852.22;6208332;23;20019;-94
2021/12/11 06:42:27;;;;;;;64.97;13.68;;;;;;;5.14;87.34;97849.75;6207452;23;20343;-95
2021/12/11 06:44:53;;;;;;;61.83;13.52;;;;;;;5.75;87.26;97848.69;6235483;23;20016;-95
2021/12/11 06:47:18;;;;;;;41.53;12.50;;;;;;;5.56;87.35;97847.91;6234081;23;20011;-95
2021/12/11 06:49:45;;;;;;;70.20;17.10;;;;;;;5.12;89.28;97856.63;6204455;23;20008;-95
2021/12/11 06:52:15;;;;;;;60.90;17.30;;;;;;;5.36;90.34;97855.72;6207853;23;20118;-95
2021/12/11 06:54:42;;;;;;;79.65;16.77;;;;;;;5.50;90.99;97873.78;6235503;23;20346;-95
2021/12/11 06:57:08;;;;;;;103.30;20.05;;;;;;;5.43;90.61;97870.34;6208021;23;20093;-95
2021/12/11 06:59:34;;;;;;;183.68;24.58;;;;;;;5.54;91.18;97867.75;6206941;23;20351;-95
2021/12/11 07:02:00;;;;;;;100.85;21.15;;;;;;;5.22;92.22;97853.19;6206558;23;20020;-96
2021/12/11 07:04:26;;;;;;;172.05;25.33;;;;;;;5.66;91.60;97858.22;6233182;23;20011;-94
2021/12/11 07:06:54;;;;;;;86.78;20.95;;;;;;;5.59;91.65;97857.38;6206535;23;20551;-95
2021/12/11 07:09:22;;;;;;;65.13;18.02;;;;;;;5.96;91.18;97855.47;6205439;23;20000;-95
2021/12/11 07:11:48;;;;;;;60.35;18.20;;;;;;;6.02;90.77;97870.16;6207970;23;20012;-95
2021/12/11 07:14:19;;;;;;;53.78;16.40;;;;;;;5.91;91.42;97877.94;6233793;23;20019;-95
2021/12/11 07:16:45;;;;;;;86.10;19.20;;;;;;;5.68;91.48;97865.09;6233518;23;20000;-96
2021/12/11 07:19:15;;;;;;;64.45;15.77;;;;;;;5.74;91.78;97867.66;6206341;23;20085;-96
2021/12/11 07:21:42;;;;;;;49.20;16.40;;;;;;;6.03;91.33;97884.81;6232668;23;20012;-96
2021/12/11 07:24:12;;;;;;;113.35;21.13;;;;;;;6.09;90.94;97873.56;6234591;23;20086;-95
2021/12/11 07:26:38;;;;;;;40.83;13.13;;;;;;;6.04;90.09;97865.84;6207921;23;20489;-96
2021/12/11 07:29:10;;;;;;;46.83;15.90;;;;;;;6.23;89.25;97868.31;6234896;23;20010;-96
2021/12/11 07:31:36;;;;;;;44.50;15.35;;;;;;;6.29;88.66;97853.59;6232815;23;20065;-96
2021/12/11 07:34:03;;;;;;;40.08;14.80;;;;;;;6.44;88.21;97886.31;6206382;23;20058;-94
2021/12/11 07:36:32;;;;;;;43.63;14.95;;;;;;;6.38;88.46;97888.94;6230591;23;20050;-94
2021/12/11 07:39:00;;;;;;;54.83;15.80;;;;;;;6.48;88.10;97908.72;6233398;23;20004;-93
2021/12/11 07:41:26;;;;;;;56.17;16.45;;;;;;;6.39;87.69;97903.63;6232125;23;20015;-94
2021/12/11 07:43:52;;;;;;;50.35;13.93;;;;;;;6.24;88.08;97906.28;6233036;23;20492;-94
2021/12/11 07:46:22;;;;;;;53.03;17.15;;;;;;;6.54;87.57;97918.22;6232471;23;20066;-95
2021/12/11 07:48:48;;;;;;;56.65;17.35;;;;;;;6.56;87.33;97921.63;6202179;23;20066;-94
2021/12/11 07:51:15;;;;;;;45.95;14.52;;;;;;;6.52;86.93;97919.94;6231027;23;20004;-93
2021/12/11 07:53:41;;;;;;;37.20;11.85;;;;;;;6.40;87.24;97920.00;6228545;23;20016;-93
2021/12/11 07:56:08;;;;;;;39.38;13.82;;;;;;;6.51;86.88;97919.94;6231216;23;20089;-94
2021/12/11 07:58:34;;;;;;;39.45;11.40;;;;;;;6.58;86.23;97929.38;6229137;23;20020;-94
2021/12/11 08:01:01;;;;;;;37.75;12.07;;;;;;;6.51;86.65;97912.16;6205348;23;20008;-94
2021/12/11 08:03:31;;;;;;;32.67;11.82;;;;;;;6.73;86.13;97926.69;6203224;23;20095;-93
2021/12/11 08:05:56;;;;;;;41.30;11.95;;;;;;;6.61;85.71;97908.63;6204349;23;20016;-94
2021/12/11 08:08:22;;;;;;;35.83;12.13;;;;;;;6.55;86.00;97919.91;6231752;23;20016;-94
2021/12/11 08:10:53;;;;;;;39.40;11.90;;;;;;;6.72;85.37;97913.75;6206583;23;20118;-94
2021/12/11 08:13:18;;;;;;;25.40;9.02;;;;;;;6.83;84.19;97915.41;6233738;23;20248;-94
2021/12/11 08:15:44;;;;;;;36.17;8.57;;;;;;;7.09;83.90;97935.06;6235817;23;20069;-94
2021/12/11 08:18:12;;;;;;;24.88;6.68;;;;;;;6.80;83.00;97927.50;6234609;23;20000;-93
2021/12/11 08:20:41;;;;;;;24.55;6.28;;;;;;;7.02;82.27;97922.19;6206722;23;20016;-95
2021/12/11 08:23:08;;;;;;;27.17;5.57;;;;;;;7.07;81.36;97936.81;6235161;23;20003;-94
2021/12/11 08:25:36;;;;;;;19.50;4.78;;;;;;;6.60;82.32;97922.50;6235265;23;20008;-94
2021/12/11 08:28:12;;;;;;;20.30;5.57;;;;;;;6.88;81.23;97919.69;6207981;23;20346;-94
2021/12/11 08:30:41;;;;;;;19.15;4.40;;;;;;;6.71;79.77;97919.78;6207433;23;20003;-94
2021/12/11 08:33:07;;;;;;;22.42;5.53;;;;;;;6.76;80.31;97913.72;6235643;23;20007;-94
2021/12/11 08:35:33;;;;;;;23.27;5.55;;;;;;;6.77;80.81;97933.56;6233591;23;20020;-94
2021/12/11 08:38:03;;;;;;;24.80;5.10;;;;;;;6.65;81.14;97919.00;6209103;23;20004;-94
2021/12/11 08:41:06;;;;;;;19.67;5.55;;;;;;;6.14;83.56;97944.31;6209106;23;20039;-95
2021/12/11 08:43:32;;;;;;;22.00;5.00;;;;;;;6.13;83.47;97927.06;6209041;23;20074;-95
2021/12/11 08:46:10;;;;;;;21.52;3.85;;;;;;;6.27;83.25;97919.22;6208916;23;20011;-94
2021/12/11 08:48:39;;;;;;;19.90;3.13;;;;;;;6.39;82.15;97920.88;6209272;23;20522;-94
2021/12/11 08:51:12;;;;;;;17.27;2.80;;;;;;;6.46;82.92;97925.16;6208573;23;20100;-93
2021/12/11 08:53:38;;;;;;;24.02;3.30;;;;;;;6.56;82.61;97916.44;6234189;23;20012;-95
2021/12/11 08:56:08;;;;;;;16.48;2.50;;;;;;;6.88;80.78;97920.53;6207222;23;20269;-94
2021/12/11 08:58:35;;;;;;;16.35;3.10;;;;;;;6.90;80.04;97908.41;6233942;23;20020;-94
2021/12/11 09:01:17;;;;;;;14.18;2.53;;;;;;;6.45;81.25;97928.63;6235149;23;20004;-95
2021/12/11 09:03:52;;;;;;;13.38;2.22;;;;;;;6.86;80.10;97913.66;6234433;23;20012;-95
2021/12/11 09:06:33;;;;;;;17.27;2.88;;;;;;;6.64;80.63;97919.00;6234716;23;20859;-93
2021/12/11 09:09:07;;;;;;;16.95;2.67;;;;;;;6.79;80.71;97915.41;6207580;23;20004;-94
2021/12/11 09:11:38;;;;;;;13.77;2.50;;;;;;;7.08;80.43;97927.28;6234520;23;20008;-94
2021/12/11 09:14:27;;;;;;;13.70;2.72;;;;;;;7.04;79.69;97926.44;6234989;23;20004;-94
2021/12/11 09:17:27;;;;;;;17.52;2.92;;;;;;;6.60;80.73;97914.72;6235839;23;20015;-94
2021/12/11 09:19:59;;;;;;;14.15;2.22;;;;;;;6.88;80.59;97930.06;6230977;23;20008;-95
2021/12/11 09:22:34;;;;;;;17.48;2.50;;;;;;;7.26;79.57;97936.66;6236056;23;20039;-95
2021/12/11 09:25:14;;;;;;;15.80;2.50;;;;;;;6.93;79.14;97930.88;6235375;23;20067;-94
2021/12/11 09:27:51;;;;;;;26.85;3.05;;;;;;;6.93;79.68;97933.47;6205554;23;20012;-93
2021/12/11 09:30:32;;;;;;;18.00;2.67;;;;;;;6.51;80.22;97928.56;6232967;23;20022;-94
2021/12/11 09:33:08;;;;;;;20.90;3.50;;;;;;;7.21;80.08;97938.41;6234477;23;20034;-95
2021/12/11 09:35:38;;;;;;;17.30;2.58;;;;;;;7.40;78.98;97947.75;6233062;23;20000;-94
2021/12/11 09:38:14;;;;;;;17.33;2.97;;;;;;;6.92;79.18;97942.13;6233258;23;20016;-94
2021/12/11 09:40:39;;;;;;;20.67;2.67;;;;;;;7.37;78.52;97959.91;6233220;23;20016;-95
2021/12/11 09:43:05;;;;;;;22.98;2.85;;;;;;;7.10;77.94;97947.16;6233308;23;20327;-94
2021/12/11 09:45:43;;;;;;;14.32;2.30;;;;;;;7.10;79.66;97965.31;6206462;23;20094;-94
2021/12/11 09:48:15;;;;;;;16.70;2.30;;;;;;;7.00;79.29;97964.53;6205674;23;20107;-94
2021/12/11 09:50:52;;;;;;;19.05;2.95;;;;;;;7.50;79.18;97966.69;6232787;23;20019;-94
2021/12/11 09:53:20;;;;;;;12.77;2.08;;;;;;;7.21;78.30;97961.75;6205173;23;20008;-94
2021/12/11 09:55:49;;;;;;;14.43;2.38;;;;;;;7.33;79.21;97966.84;6232920;23;20008;-94
2021/12/11 09:58:21;;;;;;;13.57;2.28;;;;;;;7.11;77.61;97969.63;6206275;23;20042;-95
2021/12/11 10:00:52;;;;;;;14.90;2.28;;;;;;;7.14;78.28;97954.03;6206464;23;20046;-94
2021/12/11 10:03:23;;;;;;;18.27;2.42;;;;;;;7.52;77.09;97952.81;6204797;23;20466;-94
2021/12/11 10:06:12;;;;;;;14.60;2.67;;;;;;;7.35;78.77;97965.09;6206576;23;20012;-94
2021/12/11 10:08:41;;;;;;;12.95;2.30;;;;;;;7.24;78.02;97966.94;6204995;23;20058;-94
2021/12/11 10:11:16;;;;;;;15.60;2.83;;;;;;;7.27;79.32;97962.56;6206100;23;20004;-94
2021/12/11 10:13:45;;;;;;;16.10;3.10;;;;;;;7.26;78.54;97972.97;6206663;23;20113;-94
2021/12/11 10:16:12;;;;;;;17.23;2.67;;;;;;;6.81;79.61;97942.19;6233864;23;20004;-96
2021/12/11 10:18:38;;;;;;;16.55;2.75;;;;;;;7.09;79.33;97970.50;6232171;23;20090;-95
2021/12/11 10:21:15;;;;;;;10.73;2.50;;;;;;;6.97;80.25;97948.13;6231897;23;20015;-94
2021/12/11 10:23:46;;;;;;;14.82;3.05;;;;;;;7.03;80.17;97950.69;6231920;23;20508;-95
2021/12/11 10:26:13;;;;;;;25.63;2.97;;;;;;;6.89;81.33;97952.50;6232727;23;20090;-94
2021/12/11 10:28:45;;;;;;;18.02;3.10;;;;;;;7.11;80.38;97943.69;6232946;23;20007;-96
2021/12/11 10:31:18;;;;;;;14.77;2.45;;;;;;;7.05;80.64;97941.13;6232315;23;20007;-95
2021/12/11 10:33:43;;;;;;;19.02;2.80;;;;;;;6.81;82.04;97937.88;6213552;23;20073;-94
2021/12/11 10:36:12;;;;;;;11.48;2.47;;;;;;;7.31;81.81;97933.13;6232688;23;20016;-95
2021/12/11 10:38:40;;;;;;;18.98;3.22;;;;;;;7.17;81.88;97955.75;6232177;23;20008;-95
2021/12/11 10:41:08;;;;;;;18.08;3.10;;;;;;;7.00;82.08;97951.56;6231754;23;20012;-94
2021/12/11 10:43:59;;;;;;;15.63;2.72;;;;;;;7.31;82.49;97938.31;6229413;23;20043;-94
2021/12/11 10:46:35;;;;;;;20.58;3.42;;;;;;;7.54;82.47;97938.97;6229996;23;20107;-94
2021/12/11 10:49:03;;;;;;;17.08;2.92;;;;;;;26.12;100.00;97915.47;6233024;23;20035;-93
2021/12/11 10:51:33;;;;;;;14.70;3.20;;;;;;;14.50;95.47;97922.41;6232322;23;20008;-94
2021/12/11 10:54:02;;;;;;;15.40;2.95;;;;;;;13.21;93.67;97935.69;6232956;23;20030;-94
2021/12/11 10:56:28;;;;;;;14.80;3.95;;;;;;;20.76;96.54;97913.66;6205347;23;20012;-94
2021/12/11 10:59:01;;;;;;;18.95;3.15;;;;;;;19.92;96.11;97920.59;6199658;23;20737;-94
2021/12/11 11:01:37;;;;;;;16.30;3.45;;;;;;;13.70;86.39;97930.56;6199719;23;20012;-94
2021/12/11 11:04:19;;;;;;;21.60;3.80;;;;;;;14.93;59.42;97921.66;6206379;23;20008;-96
2021/12/11 11:06:46;;;;;;;17.50;3.22;;;;;;;18.99;100.00;97914.56;6208952;23;20005;-96
2021/12/11 11:09:15;;;;;;;17.98;3.47;;;;;;;18.77;43.08;97894.59;6209726;23;20031;-96
2021/12/11 11:11:56;;;;;;;15.15;3.22;;;;;;;11.27;100.00;97927.31;6222596;23;20044;-96
2021/12/11 11:14:36;;;;;;;13.98;3.25;;;;;;;39.77;100.00;97917.75;6228688;23;20004;-96
2021/12/11 11:17:11;;;;;;;21.02;3.53;;;;;;;-146.73;100.00;56421.06;6184820;23;20029;-95
2021/12/11 11:19:40;;;;;;;18.75;4.20;;;;;;;-146.73;100.00;56421.06;6172287;23;20092;-95
2021/12/11 11:22:11;;;;;;;19.80;3.15;;;;;;;-146.73;100.00;56421.06;6171243;23;20009;-95
2021/12/11 11:24:42;;;;;;;12.25;2.38;;;;;;;-146.73;100.00;56421.06;6187486;23;19989;-96
2021/12/11 11:27:08;;;;;;;22.45;3.55;;;;;;;-146.73;100.00;56421.06;6186947;23;20005;-96
2021/12/11 11:29:35;;;;;;;20.52;3.50;;;;;;;-146.73;100.00;56421.06;6186480;23;20415;-96
2021/12/11 11:32:08;;;;;;;17.60;2.83;;;;;;;-146.73;100.00;56421.06;6181051;23;20027;-96
2021/12/11 11:37:14;;;;;;;12.75;2.30;;;;;;;-146.73;100.00;56421.06;6206076;23;20036;-96
2021/12/11 11:46:28;;;;;;;;;;;;;;;;;;;;;
2021/12/11 12:02:44;;;;;;;22.33;3.03;;;;;;;-146.73;100.00;56421.06;6177683;23;20113;-96
2021/12/11 12:11:17;;;;;;;16.10;3.30;;;;;;;-146.73;100.00;56421.06;6142290;23;20029;-96
2021/12/11 12:13:42;;;;;;;21.52;3.47;;;;;;;-146.73;100.00;56421.06;6173968;23;20040;-96
2021/12/11 12:16:17;;;;;;;17.92;3.08;;;;;;;-146.73;100.00;56421.06;6173755;23;20017;-96
2021/12/11 12:18:44;;;;;;;20.98;3.38;;;;;;;-146.73;100.00;56421.06;6189391;23;20013;-96
2021/12/11 12:21:14;;;;;;;17.05;3.15;;;;;;;-146.73;100.00;56421.06;6174717;23;20017;-96
2021/12/11 12:23:40;;;;;;;17.00;3.28;;;;;;;-146.73;100.00;56421.06;6169411;23;20017;-95
2021/12/11 12:26:10;;;;;;;17.17;3.60;;;;;;;-146.73;100.00;56421.06;6175828;23;20008;-96
2021/12/11 13:16:22;;;;;;;16.23;3.97;;;;;;;-146.73;100.00;56421.06;6186447;23;20028;-96
2021/12/11 13:18:54;;;;;;;21.92;5.80;;;;;;;-146.73;100.00;56421.06;6181939;23;20016;-96